TAP829 LIMC-LPPT
Flight info
| Callsign | TAP829 |
|---|---|
| Flight time | 2h 35m |
| Altitude | 33000 |
| Route | NEDED DCT GEKBA DCT VAMTU DCT KOLON DCT GANGU DCT PADKO DCT DIVKO DCT NILDU DCT NENDA DCT BCN DCT ANTON DCT XIKEN DCT OSLAP DCT SALAS DCT RAMON DCT NEXAS DCT DISVU DCT ADUXO N975 PALIO DCT AKOKI DCT GOTOR DCT TLD DCT NATPA DCT MELON DCT CCS DCT ELVAR DCT UPULO |
| Aircraft | A321/M-SDE3FGHIRWY/LB1 |
Departure
| Time | 2026-05-06 08:47 |
|---|---|
| Airport | Milan Malpensa International Airport (LIMC) |
Arrival
| Time | 2026-05-06 11:22 |
|---|---|
| Airport | Lisbon Humberto Delgado Airport (LPPT) |
| Time | Latitude | Longitude | Altitude | Speed | Heading |
|---|---|---|---|---|---|
| 2026-05-06 08:14 | 45.62533 | 8.71610 | 758 ft | 0 kts | 169° |
| 2026-05-06 08:19 | 45.62534 | 8.71610 | 758 ft | 0 kts | 169° |
| 2026-05-06 08:32 | 45.62535 | 8.71610 | 759 ft | 1 kts | 169° |
| 2026-05-06 08:33 | 45.62558 | 8.71602 | 756 ft | 4 kts | 164° |
| 2026-05-06 08:33 | 45.62584 | 8.71590 | 755 ft | 4 kts | 154° |
| 2026-05-06 08:33 | 45.62606 | 8.71570 | 754 ft | 4 kts | 129° |
| 2026-05-06 08:33 | 45.62614 | 8.71545 | 755 ft | 1 kts | 79° |
| 2026-05-06 08:36 | 45.62614 | 8.71548 | 756 ft | 2 kts | 79° |
| 2026-05-06 08:37 | 45.62624 | 8.71615 | 755 ft | 12 kts | 78° |
| 2026-05-06 08:37 | 45.62642 | 8.71747 | 755 ft | 14 kts | 79° |
| 2026-05-06 08:37 | 45.62591 | 8.71847 | 758 ft | 14 kts | 158° |
| 2026-05-06 08:37 | 45.62493 | 8.71879 | 758 ft | 15 kts | 168° |
| 2026-05-06 08:38 | 45.62370 | 8.71912 | 755 ft | 20 kts | 169° |
| 2026-05-06 08:38 | 45.62236 | 8.71947 | 758 ft | 19 kts | 169° |
| 2026-05-06 08:38 | 45.62110 | 8.71982 | 758 ft | 18 kts | 168° |
| 2026-05-06 08:38 | 45.61993 | 8.72015 | 755 ft | 17 kts | 169° |
| 2026-05-06 08:39 | 45.61852 | 8.72054 | 755 ft | 25 kts | 169° |
| 2026-05-06 08:39 | 45.61686 | 8.72099 | 758 ft | 24 kts | 169° |
| 2026-05-06 08:39 | 45.61528 | 8.72143 | 758 ft | 22 kts | 169° |
| 2026-05-06 08:39 | 45.61383 | 8.72182 | 758 ft | 19 kts | 169° |
| 2026-05-06 08:40 | 45.61257 | 8.72217 | 758 ft | 18 kts | 169° |
| 2026-05-06 08:40 | 45.61141 | 8.72249 | 758 ft | 16 kts | 169° |
| 2026-05-06 08:40 | 45.61025 | 8.72281 | 757 ft | 20 kts | 169° |
| 2026-05-06 08:40 | 45.60869 | 8.72323 | 758 ft | 23 kts | 168° |
| 2026-05-06 08:41 | 45.60719 | 8.72369 | 760 ft | 21 kts | 162° |
| 2026-05-06 08:41 | 45.60639 | 8.72511 | 755 ft | 18 kts | 102° |
| 2026-05-06 08:41 | 45.60625 | 8.72685 | 757 ft | 17 kts | 95° |
| 2026-05-06 08:41 | 45.60611 | 8.72892 | 760 ft | 23 kts | 95° |
| 2026-05-06 08:42 | 45.60595 | 8.73114 | 755 ft | 22 kts | 96° |
| 2026-05-06 08:42 | 45.60658 | 8.73281 | 757 ft | 20 kts | 30° |
| 2026-05-06 08:42 | 45.60796 | 8.73368 | 755 ft | 22 kts | 22° |
| 2026-05-06 08:42 | 45.60938 | 8.73399 | 760 ft | 20 kts | 350° |
| 2026-05-06 08:43 | 45.61070 | 8.73363 | 758 ft | 19 kts | 349° |
| 2026-05-06 08:43 | 45.61221 | 8.73320 | 758 ft | 25 kts | 349° |
| 2026-05-06 08:43 | 45.61386 | 8.73276 | 760 ft | 23 kts | 349° |
| 2026-05-06 08:43 | 45.61540 | 8.73232 | 758 ft | 22 kts | 348° |
| 2026-05-06 08:44 | 45.61629 | 8.73322 | 758 ft | 17 kts | 74° |
| 2026-05-06 08:44 | 45.61626 | 8.73450 | 758 ft | 9 kts | 109° |
| 2026-05-06 08:44 | 45.61604 | 8.73532 | 755 ft | 9 kts | 111° |
| 2026-05-06 08:44 | 45.61593 | 8.73659 | 759 ft | 14 kts | 78° |
| 2026-05-06 08:45 | 45.61637 | 8.73727 | 755 ft | 9 kts | 10° |
| 2026-05-06 08:45 | 45.61664 | 8.73724 | 755 ft | 0 kts | 349° |
| 2026-05-06 08:45 | 45.61667 | 8.73723 | 755 ft | 3 kts | 349° |
| 2026-05-06 08:46 | 45.61898 | 8.73660 | 756 ft | 69 kts | 349° |
| 2026-05-06 08:46 | 45.62305 | 8.73545 | 762 ft | 109 kts | 349° |
| 2026-05-06 08:46 | 45.63595 | 8.73193 | 762 ft | 171 kts | 349° |
| 2026-05-06 08:46 | 45.64809 | 8.72834 | 1203 ft | 174 kts | 347° |
| 2026-05-06 08:47 | 45.65600 | 8.72632 | 1570 ft | 174 kts | 348° |
| 2026-05-06 08:47 | 45.66824 | 8.72467 | 2071 ft | 179 kts | 359° |
| 2026-05-06 08:47 | 45.68096 | 8.72483 | 2489 ft | 188 kts | 2° |
| 2026-05-06 08:47 | 45.69464 | 8.72530 | 2660 ft | 205 kts | 6° |
| 2026-05-06 08:48 | 45.70963 | 8.72559 | 2801 ft | 224 kts | 4° |
| 2026-05-06 08:48 | 45.72510 | 8.71877 | 2958 ft | 247 kts | 323° |
| 2026-05-06 08:48 | 45.73486 | 8.69863 | 3357 ft | 252 kts | 281° |
| 2026-05-06 08:48 | 45.73505 | 8.67439 | 3838 ft | 246 kts | 252° |
| 2026-05-06 08:49 | 45.73034 | 8.65100 | 4426 ft | 242 kts | 246° |
| 2026-05-06 08:49 | 45.72451 | 8.62851 | 5031 ft | 241 kts | 246° |
| 2026-05-06 08:49 | 45.71840 | 8.60619 | 5700 ft | 240 kts | 238° |
| 2026-05-06 08:49 | 45.70910 | 8.58620 | 6516 ft | 251 kts | 233° |
| 2026-05-06 08:50 | 45.69847 | 8.56489 | 6797 ft | 271 kts | 233° |
| 2026-05-06 08:50 | 45.68808 | 8.54242 | 7252 ft | 276 kts | 232° |
| 2026-05-06 08:50 | 45.67500 | 8.52259 | 7795 ft | 274 kts | 213° |
| 2026-05-06 08:50 | 45.65820 | 8.51001 | 8359 ft | 274 kts | 200° |
| 2026-05-06 08:51 | 45.64052 | 8.49960 | 8978 ft | 275 kts | 202° |
| 2026-05-06 08:51 | 45.62276 | 8.48923 | 9596 ft | 277 kts | 202° |
| 2026-05-06 08:51 | 45.60477 | 8.47876 | 10123 ft | 285 kts | 202° |
| 2026-05-06 08:51 | 45.58575 | 8.46770 | 10250 ft | 305 kts | 202° |
| 2026-05-06 08:52 | 45.56533 | 8.45581 | 10387 ft | 327 kts | 202° |
| 2026-05-06 08:52 | 45.54370 | 8.44350 | 10507 ft | 347 kts | 201° |
| 2026-05-06 08:52 | 45.52052 | 8.43140 | 10630 ft | 361 kts | 199° |
| 2026-05-06 08:52 | 45.49649 | 8.41953 | 10948 ft | 368 kts | 199° |
| 2026-05-06 08:53 | 45.47207 | 8.40773 | 11395 ft | 370 kts | 199° |
| 2026-05-06 08:53 | 45.44760 | 8.39598 | 11889 ft | 371 kts | 199° |
| 2026-05-06 08:53 | 45.42333 | 8.38425 | 12381 ft | 372 kts | 199° |
| 2026-05-06 08:53 | 45.39877 | 8.37226 | 12853 ft | 374 kts | 199° |
| 2026-05-06 08:54 | 45.37414 | 8.36012 | 13305 ft | 375 kts | 199° |
| 2026-05-06 08:54 | 45.34941 | 8.34788 | 13725 ft | 377 kts | 199° |
| 2026-05-06 08:54 | 45.32461 | 8.33558 | 14086 ft | 378 kts | 199° |
| 2026-05-06 08:54 | 45.29971 | 8.32323 | 14442 ft | 379 kts | 199° |
| 2026-05-06 08:55 | 45.27470 | 8.31087 | 14789 ft | 381 kts | 200° |
| 2026-05-06 08:55 | 45.24960 | 8.29850 | 15139 ft | 382 kts | 200° |
| 2026-05-06 08:55 | 45.22441 | 8.28612 | 15481 ft | 383 kts | 199° |
| 2026-05-06 08:55 | 45.19939 | 8.27385 | 15829 ft | 385 kts | 199° |
| 2026-05-06 08:56 | 45.17404 | 8.26146 | 16175 ft | 386 kts | 199° |
| 2026-05-06 08:56 | 45.14859 | 8.24902 | 16533 ft | 387 kts | 199° |
| 2026-05-06 08:56 | 45.12304 | 8.23655 | 16893 ft | 389 kts | 199° |
| 2026-05-06 08:56 | 45.09676 | 8.22697 | 17246 ft | 391 kts | 190° |
| 2026-05-06 08:57 | 45.06976 | 8.22117 | 17625 ft | 392 kts | 189° |
| 2026-05-06 08:57 | 45.04270 | 8.21537 | 17989 ft | 394 kts | 189° |
| 2026-05-06 08:57 | 45.01552 | 8.20953 | 18348 ft | 396 kts | 190° |
| 2026-05-06 08:57 | 44.98859 | 8.20373 | 18683 ft | 397 kts | 190° |
| 2026-05-06 08:58 | 44.96116 | 8.19782 | 19050 ft | 398 kts | 190° |
| 2026-05-06 08:58 | 44.93373 | 8.19192 | 19418 ft | 398 kts | 191° |
| 2026-05-06 08:58 | 44.90620 | 8.18598 | 19783 ft | 399 kts | 191° |
| 2026-05-06 08:58 | 44.87905 | 8.18014 | 20112 ft | 400 kts | 191° |
| 2026-05-06 08:59 | 44.85147 | 8.17421 | 20458 ft | 400 kts | 192° |
| 2026-05-06 08:59 | 44.82387 | 8.16829 | 20796 ft | 401 kts | 192° |
| 2026-05-06 08:59 | 44.79622 | 8.16238 | 21128 ft | 402 kts | 192° |
| 2026-05-06 08:59 | 44.76848 | 8.15648 | 21472 ft | 403 kts | 192° |
| 2026-05-06 09:00 | 44.74104 | 8.15064 | 21800 ft | 403 kts | 192° |
| 2026-05-06 09:00 | 44.71340 | 8.14389 | 22083 ft | 402 kts | 197° |
| 2026-05-06 09:00 | 44.68690 | 8.13156 | 22353 ft | 399 kts | 206° |
| 2026-05-06 09:00 | 44.66231 | 8.11339 | 22686 ft | 398 kts | 213° |
| 2026-05-06 09:01 | 44.63871 | 8.09303 | 23026 ft | 398 kts | 213° |
| 2026-05-06 09:01 | 44.61502 | 8.07269 | 23336 ft | 399 kts | 213° |
| 2026-05-06 09:01 | 44.59155 | 8.05259 | 23589 ft | 400 kts | 213° |
| 2026-05-06 09:01 | 44.56769 | 8.03221 | 23838 ft | 401 kts | 213° |
| 2026-05-06 09:02 | 44.54376 | 8.01178 | 24066 ft | 402 kts | 213° |
| 2026-05-06 09:02 | 44.51983 | 7.99132 | 24297 ft | 402 kts | 213° |
| 2026-05-06 09:02 | 44.49590 | 7.97083 | 24497 ft | 403 kts | 213° |
| 2026-05-06 09:02 | 44.47223 | 7.95057 | 24749 ft | 404 kts | 213° |
| 2026-05-06 09:03 | 44.44816 | 7.93002 | 24939 ft | 404 kts | 213° |
| 2026-05-06 09:03 | 44.42410 | 7.90950 | 25118 ft | 405 kts | 213° |
| 2026-05-06 09:03 | 44.40000 | 7.88902 | 25351 ft | 404 kts | 213° |
| 2026-05-06 09:03 | 44.37601 | 7.86865 | 25584 ft | 403 kts | 213° |
| 2026-05-06 09:04 | 44.35202 | 7.84833 | 25832 ft | 402 kts | 213° |
| 2026-05-06 09:04 | 44.32813 | 7.82811 | 26041 ft | 402 kts | 213° |
| 2026-05-06 09:04 | 44.30416 | 7.80777 | 26258 ft | 401 kts | 213° |
| 2026-05-06 09:04 | 44.28034 | 7.78748 | 26459 ft | 400 kts | 214° |
| 2026-05-06 09:05 | 44.25850 | 7.76455 | 26631 ft | 399 kts | 221° |
| 2026-05-06 09:05 | 44.23767 | 7.73867 | 26796 ft | 399 kts | 221° |
| 2026-05-06 09:05 | 44.21687 | 7.71293 | 27026 ft | 399 kts | 221° |
| 2026-05-06 09:05 | 44.19610 | 7.68729 | 27259 ft | 398 kts | 221° |
| 2026-05-06 09:06 | 44.17536 | 7.66180 | 27512 ft | 396 kts | 221° |
| 2026-05-06 09:06 | 44.15468 | 7.63645 | 27722 ft | 396 kts | 221° |
| 2026-05-06 09:06 | 44.13562 | 7.60948 | 27952 ft | 395 kts | 228° |
| 2026-05-06 09:06 | 44.11766 | 7.58057 | 28293 ft | 394 kts | 228° |
| 2026-05-06 09:07 | 44.09978 | 7.55188 | 28545 ft | 391 kts | 227° |
| 2026-05-06 09:07 | 44.08193 | 7.52336 | 28708 ft | 391 kts | 227° |
| 2026-05-06 09:07 | 44.06398 | 7.49472 | 28936 ft | 391 kts | 227° |
| 2026-05-06 09:07 | 44.04612 | 7.46621 | 29099 ft | 390 kts | 227° |
| 2026-05-06 09:08 | 44.02825 | 7.43774 | 29337 ft | 390 kts | 227° |
| 2026-05-06 09:08 | 44.01043 | 7.40933 | 29595 ft | 389 kts | 227° |
| 2026-05-06 09:08 | 43.99289 | 7.38134 | 29860 ft | 388 kts | 227° |
| 2026-05-06 09:08 | 43.97516 | 7.35309 | 30074 ft | 387 kts | 227° |
| 2026-05-06 09:09 | 43.95746 | 7.32495 | 30287 ft | 386 kts | 227° |
| 2026-05-06 09:09 | 43.93977 | 7.29685 | 30510 ft | 385 kts | 227° |
| 2026-05-06 09:09 | 43.92216 | 7.26891 | 30652 ft | 384 kts | 227° |
| 2026-05-06 09:09 | 43.90475 | 7.24132 | 30809 ft | 384 kts | 227° |
| 2026-05-06 09:10 | 43.88714 | 7.21349 | 30957 ft | 383 kts | 227° |
| 2026-05-06 09:10 | 43.86956 | 7.18571 | 31155 ft | 383 kts | 227° |
| 2026-05-06 09:10 | 43.85201 | 7.15799 | 31353 ft | 382 kts | 227° |
| 2026-05-06 09:10 | 43.83446 | 7.13030 | 31542 ft | 381 kts | 226° |
| 2026-05-06 09:11 | 43.81685 | 7.10259 | 31687 ft | 381 kts | 227° |
| 2026-05-06 09:11 | 43.79959 | 7.07543 | 31847 ft | 380 kts | 227° |
| 2026-05-06 09:11 | 43.78209 | 7.04792 | 32072 ft | 379 kts | 227° |
| 2026-05-06 09:11 | 43.76467 | 7.02054 | 32268 ft | 378 kts | 227° |
| 2026-05-06 09:12 | 43.74732 | 6.99326 | 32488 ft | 377 kts | 227° |
| 2026-05-06 09:12 | 43.73040 | 6.96543 | 32660 ft | 377 kts | 232° |
| 2026-05-06 09:12 | 43.71671 | 6.93438 | 32829 ft | 380 kts | 240° |
| 2026-05-06 09:13 | 43.69651 | 6.86687 | 32887 ft | 382 kts | 244° |
| 2026-05-06 09:13 | 43.67647 | 6.79861 | 32885 ft | 384 kts | 244° |
| 2026-05-06 09:14 | 43.65622 | 6.73010 | 32877 ft | 384 kts | 244° |
| 2026-05-06 09:14 | 43.63606 | 6.66209 | 32863 ft | 385 kts | 244° |
| 2026-05-06 09:15 | 43.61582 | 6.59376 | 32896 ft | 383 kts | 244° |
| 2026-05-06 09:15 | 43.59555 | 6.52568 | 32900 ft | 383 kts | 244° |
| 2026-05-06 09:16 | 43.57527 | 6.45778 | 32953 ft | 383 kts | 244° |
| 2026-05-06 09:16 | 43.55490 | 6.39001 | 32923 ft | 386 kts | 244° |
| 2026-05-06 09:17 | 43.53437 | 6.32158 | 32919 ft | 386 kts | 244° |
| 2026-05-06 09:17 | 43.51383 | 6.25305 | 32914 ft | 386 kts | 244° |
| 2026-05-06 09:18 | 43.49335 | 6.18503 | 32918 ft | 386 kts | 244° |
| 2026-05-06 09:18 | 43.47264 | 6.11678 | 32918 ft | 386 kts | 244° |
| 2026-05-06 09:19 | 43.45197 | 6.04857 | 32916 ft | 386 kts | 244° |
| 2026-05-06 09:19 | 43.43123 | 5.98033 | 32921 ft | 386 kts | 244° |
| 2026-05-06 09:20 | 43.41054 | 5.91253 | 32925 ft | 386 kts | 244° |
| 2026-05-06 09:20 | 43.38974 | 5.84431 | 32923 ft | 386 kts | 244° |
| 2026-05-06 09:21 | 43.36894 | 5.77650 | 32930 ft | 386 kts | 244° |
| 2026-05-06 09:21 | 43.34804 | 5.70859 | 32966 ft | 386 kts | 244° |
| 2026-05-06 09:22 | 43.32708 | 5.64051 | 32926 ft | 386 kts | 244° |
| 2026-05-06 09:22 | 43.30607 | 5.57260 | 32935 ft | 386 kts | 244° |
| 2026-05-06 09:23 | 43.28522 | 5.50518 | 32936 ft | 386 kts | 244° |
| 2026-05-06 09:23 | 43.26415 | 5.43721 | 32938 ft | 387 kts | 244° |
| 2026-05-06 09:24 | 43.24302 | 5.36930 | 32941 ft | 387 kts | 244° |
| 2026-05-06 09:24 | 43.22183 | 5.30145 | 32944 ft | 386 kts | 244° |
| 2026-05-06 09:25 | 43.20081 | 5.23429 | 32941 ft | 385 kts | 244° |
| 2026-05-06 09:25 | 43.17961 | 5.16683 | 32942 ft | 385 kts | 244° |
| 2026-05-06 09:26 | 43.15836 | 5.09940 | 32940 ft | 385 kts | 244° |
| 2026-05-06 09:26 | 43.13712 | 5.03201 | 32942 ft | 385 kts | 244° |
| 2026-05-06 09:27 | 43.11578 | 4.96466 | 32925 ft | 385 kts | 244° |
| 2026-05-06 09:27 | 43.09461 | 4.89773 | 32944 ft | 384 kts | 244° |
| 2026-05-06 09:28 | 43.07325 | 4.83046 | 32946 ft | 384 kts | 244° |
| 2026-05-06 09:28 | 43.04662 | 4.76808 | 32947 ft | 382 kts | 230° |
| 2026-05-06 09:29 | 43.00779 | 4.71825 | 32954 ft | 384 kts | 223° |
| 2026-05-06 09:29 | 42.96772 | 4.66986 | 32953 ft | 384 kts | 223° |
| 2026-05-06 09:30 | 42.92784 | 4.62177 | 32947 ft | 384 kts | 223° |
| 2026-05-06 09:30 | 42.88777 | 4.57344 | 32993 ft | 384 kts | 223° |
| 2026-05-06 09:31 | 42.84758 | 4.52503 | 32961 ft | 385 kts | 223° |
| 2026-05-06 09:31 | 42.80753 | 4.47694 | 32961 ft | 385 kts | 223° |
| 2026-05-06 09:32 | 42.76729 | 4.42873 | 32965 ft | 385 kts | 223° |
| 2026-05-06 09:32 | 42.72719 | 4.38091 | 32964 ft | 385 kts | 223° |
| 2026-05-06 09:33 | 42.68687 | 4.33283 | 32969 ft | 385 kts | 223° |
| 2026-05-06 09:33 | 42.65333 | 4.29277 | 32969 ft | 385 kts | 223° |
| 2026-05-06 09:34 | 42.61300 | 4.24467 | 32971 ft | 385 kts | 223° |
| 2026-05-06 09:34 | 42.57263 | 4.19665 | 32972 ft | 385 kts | 223° |
| 2026-05-06 09:35 | 42.53215 | 4.14868 | 32938 ft | 386 kts | 223° |
| 2026-05-06 09:35 | 42.49163 | 4.10076 | 32978 ft | 387 kts | 223° |
| 2026-05-06 09:36 | 42.45107 | 4.05285 | 32980 ft | 386 kts | 223° |
| 2026-05-06 09:36 | 42.41071 | 4.00530 | 32980 ft | 387 kts | 223° |
| 2026-05-06 09:37 | 42.37007 | 3.95749 | 32986 ft | 387 kts | 223° |
| 2026-05-06 09:37 | 42.32965 | 3.90994 | 32954 ft | 387 kts | 223° |
| 2026-05-06 09:38 | 42.28882 | 3.86210 | 32978 ft | 389 kts | 223° |
| 2026-05-06 09:38 | 42.25061 | 3.81050 | 32996 ft | 388 kts | 235° |
| 2026-05-06 09:39 | 42.21940 | 3.75088 | 32985 ft | 388 kts | 235° |
| 2026-05-06 09:39 | 42.18832 | 3.69183 | 32984 ft | 388 kts | 235° |
| 2026-05-06 09:40 | 42.15696 | 3.63257 | 32983 ft | 388 kts | 235° |
| 2026-05-06 09:40 | 42.10983 | 3.54354 | 32985 ft | 389 kts | 235° |
| 2026-05-06 09:41 | 42.07835 | 3.48417 | 32974 ft | 389 kts | 235° |
| 2026-05-06 09:41 | 42.04712 | 3.42528 | 32983 ft | 389 kts | 235° |
| 2026-05-06 09:42 | 42.01562 | 3.36612 | 32983 ft | 389 kts | 235° |
| 2026-05-06 09:42 | 41.98401 | 3.30698 | 32985 ft | 389 kts | 235° |
| 2026-05-06 09:43 | 41.95239 | 3.24790 | 32982 ft | 389 kts | 235° |
| 2026-05-06 09:43 | 41.92099 | 3.18922 | 32982 ft | 390 kts | 235° |
| 2026-05-06 09:44 | 41.88911 | 3.12997 | 32980 ft | 390 kts | 235° |
| 2026-05-06 09:44 | 41.85731 | 3.07084 | 32980 ft | 390 kts | 235° |
| 2026-05-06 09:45 | 41.82550 | 3.01171 | 32965 ft | 390 kts | 235° |
| 2026-05-06 09:45 | 41.79379 | 2.95316 | 32981 ft | 390 kts | 235° |
| 2026-05-06 09:46 | 41.76183 | 2.89408 | 32976 ft | 390 kts | 235° |
| 2026-05-06 09:46 | 41.73015 | 2.83544 | 32968 ft | 390 kts | 235° |
| 2026-05-06 09:47 | 41.69809 | 2.77641 | 32975 ft | 391 kts | 235° |
| 2026-05-06 09:47 | 41.66569 | 2.71787 | 32976 ft | 391 kts | 234° |
| 2026-05-06 09:48 | 41.63220 | 2.66049 | 32989 ft | 391 kts | 233° |
| 2026-05-06 09:48 | 41.59867 | 2.60367 | 32973 ft | 391 kts | 233° |
| 2026-05-06 09:49 | 41.56498 | 2.54627 | 32989 ft | 391 kts | 233° |
| 2026-05-06 09:49 | 41.53152 | 2.48901 | 32939 ft | 391 kts | 233° |
| 2026-05-06 09:50 | 41.49818 | 2.43198 | 32979 ft | 392 kts | 234° |
| 2026-05-06 09:50 | 41.46454 | 2.37462 | 32991 ft | 392 kts | 233° |
| 2026-05-06 09:51 | 41.43086 | 2.31742 | 32996 ft | 392 kts | 233° |
| 2026-05-06 09:51 | 41.39740 | 2.26062 | 32998 ft | 392 kts | 233° |
| 2026-05-06 09:52 | 41.36368 | 2.20335 | 33002 ft | 392 kts | 233° |
| 2026-05-06 09:52 | 41.32989 | 2.14611 | 33003 ft | 392 kts | 235° |
| 2026-05-06 09:53 | 41.30559 | 2.08237 | 33001 ft | 390 kts | 253° |
| 2026-05-06 09:53 | 41.29611 | 2.01093 | 33002 ft | 392 kts | 259° |
| 2026-05-06 09:54 | 41.28787 | 1.93904 | 33002 ft | 392 kts | 259° |
| 2026-05-06 09:54 | 41.27955 | 1.86757 | 32990 ft | 392 kts | 259° |
| 2026-05-06 09:55 | 41.27124 | 1.79613 | 32994 ft | 393 kts | 259° |
| 2026-05-06 09:55 | 41.26285 | 1.72422 | 32995 ft | 393 kts | 259° |
| 2026-05-06 09:56 | 41.25438 | 1.65242 | 32989 ft | 392 kts | 259° |
| 2026-05-06 09:56 | 41.24592 | 1.58065 | 32987 ft | 393 kts | 259° |
| 2026-05-06 09:57 | 41.23751 | 1.50929 | 32989 ft | 393 kts | 259° |
| 2026-05-06 09:57 | 41.22889 | 1.43734 | 32981 ft | 394 kts | 259° |
| 2026-05-06 09:58 | 41.22018 | 1.36536 | 32978 ft | 395 kts | 259° |
| 2026-05-06 09:58 | 41.21148 | 1.29319 | 32976 ft | 395 kts | 259° |
| 2026-05-06 09:59 | 41.20285 | 1.22162 | 32974 ft | 395 kts | 259° |
| 2026-05-06 09:59 | 41.19409 | 1.14958 | 32975 ft | 395 kts | 259° |
| 2026-05-06 10:00 | 41.18524 | 1.07743 | 32975 ft | 396 kts | 259° |
| 2026-05-06 10:00 | 41.17634 | 1.00516 | 32975 ft | 396 kts | 259° |
| 2026-05-06 10:01 | 41.16738 | 0.93287 | 32985 ft | 396 kts | 259° |
| 2026-05-06 10:01 | 41.15843 | 0.86119 | 32989 ft | 396 kts | 259° |
| 2026-05-06 10:02 | 41.14935 | 0.78895 | 32990 ft | 397 kts | 259° |
| 2026-05-06 10:02 | 41.14020 | 0.71665 | 32990 ft | 397 kts | 259° |
| 2026-05-06 10:03 | 41.13103 | 0.64427 | 32995 ft | 397 kts | 259° |
| 2026-05-06 10:03 | 41.12193 | 0.57199 | 32994 ft | 397 kts | 259° |
| 2026-05-06 10:04 | 41.11279 | 0.50018 | 32991 ft | 397 kts | 259° |
| 2026-05-06 10:04 | 41.10348 | 0.42783 | 32996 ft | 398 kts | 259° |
| 2026-05-06 10:05 | 41.09410 | 0.35544 | 32997 ft | 398 kts | 259° |
| 2026-05-06 10:05 | 41.08474 | 0.28307 | 32999 ft | 398 kts | 259° |
| 2026-05-06 10:06 | 41.07539 | 0.21119 | 33000 ft | 398 kts | 259° |
| 2026-05-06 10:06 | 41.06588 | 0.13885 | 33006 ft | 398 kts | 259° |
| 2026-05-06 10:07 | 41.05637 | 0.06662 | 33003 ft | 398 kts | 259° |
| 2026-05-06 10:07 | 41.04683 | -0.00516 | 33020 ft | 398 kts | 259° |
| 2026-05-06 10:08 | 41.03721 | -0.07736 | 33003 ft | 397 kts | 259° |
| 2026-05-06 10:08 | 41.02755 | -0.14952 | 33001 ft | 397 kts | 259° |
| 2026-05-06 10:09 | 41.01782 | -0.22144 | 33010 ft | 397 kts | 259° |
| 2026-05-06 10:09 | 41.00700 | -0.29261 | 33006 ft | 396 kts | 252° |
| 2026-05-06 10:10 | 40.98857 | -0.36162 | 33000 ft | 397 kts | 251° |
| 2026-05-06 10:10 | 40.96998 | -0.43043 | 32998 ft | 397 kts | 251° |
| 2026-05-06 10:11 | 40.95149 | -0.49883 | 32996 ft | 397 kts | 251° |
| 2026-05-06 10:11 | 40.93280 | -0.56755 | 32998 ft | 397 kts | 250° |
| 2026-05-06 10:12 | 40.91403 | -0.63616 | 32998 ft | 397 kts | 251° |
| 2026-05-06 10:12 | 40.89520 | -0.70485 | 32997 ft | 397 kts | 250° |
| 2026-05-06 10:13 | 40.87651 | -0.77303 | 33021 ft | 396 kts | 250° |
| 2026-05-06 10:13 | 40.85765 | -0.84157 | 32987 ft | 396 kts | 251° |
| 2026-05-06 10:14 | 40.83879 | -0.91001 | 33002 ft | 396 kts | 250° |
| 2026-05-06 10:14 | 40.81988 | -0.97850 | 32996 ft | 396 kts | 250° |
| 2026-05-06 10:15 | 40.80099 | -1.04635 | 33005 ft | 396 kts | 250° |
| 2026-05-06 10:15 | 40.78193 | -1.11470 | 32992 ft | 396 kts | 250° |
| 2026-05-06 10:16 | 40.76279 | -1.18306 | 32999 ft | 397 kts | 250° |
| 2026-05-06 10:16 | 40.74680 | -1.23989 | 33005 ft | 397 kts | 250° |
| 2026-05-06 10:17 | 40.72759 | -1.30828 | 33007 ft | 397 kts | 250° |
| 2026-05-06 10:17 | 40.70858 | -1.37611 | 33014 ft | 397 kts | 250° |
| 2026-05-06 10:18 | 40.68941 | -1.44439 | 33013 ft | 396 kts | 250° |
| 2026-05-06 10:18 | 40.67017 | -1.51255 | 33004 ft | 397 kts | 250° |
| 2026-05-06 10:19 | 40.65079 | -1.58081 | 32998 ft | 398 kts | 250° |
| 2026-05-06 10:19 | 40.63142 | -1.64901 | 32998 ft | 398 kts | 250° |
| 2026-05-06 10:20 | 40.61206 | -1.71700 | 32999 ft | 398 kts | 250° |
| 2026-05-06 10:20 | 40.59260 | -1.78528 | 32995 ft | 398 kts | 250° |
| 2026-05-06 10:21 | 40.57305 | -1.85353 | 32999 ft | 398 kts | 250° |
| 2026-05-06 10:21 | 40.55359 | -1.92134 | 32995 ft | 399 kts | 250° |
| 2026-05-06 10:22 | 40.53395 | -1.98963 | 32993 ft | 399 kts | 250° |
| 2026-05-06 10:22 | 40.51417 | -2.05808 | 32998 ft | 399 kts | 250° |
| 2026-05-06 10:23 | 40.49452 | -2.12599 | 32996 ft | 399 kts | 250° |
| 2026-05-06 10:23 | 40.47470 | -2.19414 | 32996 ft | 399 kts | 250° |
| 2026-05-06 10:24 | 40.45477 | -2.26229 | 32994 ft | 400 kts | 250° |
| 2026-05-06 10:24 | 40.43487 | -2.33060 | 32996 ft | 400 kts | 250° |
| 2026-05-06 10:25 | 40.41489 | -2.39895 | 32995 ft | 401 kts | 250° |
| 2026-05-06 10:25 | 40.39480 | -2.46723 | 33010 ft | 401 kts | 250° |
| 2026-05-06 10:26 | 40.37479 | -2.53513 | 33006 ft | 400 kts | 250° |
| 2026-05-06 10:26 | 40.35899 | -2.60520 | 33010 ft | 400 kts | 255° |
| 2026-05-06 10:27 | 40.34383 | -2.67558 | 33001 ft | 400 kts | 254° |
| 2026-05-06 10:27 | 40.32856 | -2.74564 | 32996 ft | 402 kts | 254° |
| 2026-05-06 10:28 | 40.31315 | -2.81611 | 32998 ft | 402 kts | 254° |
| 2026-05-06 10:28 | 40.29775 | -2.88656 | 32996 ft | 402 kts | 254° |
| 2026-05-06 10:29 | 40.28233 | -2.95702 | 32999 ft | 402 kts | 254° |
| 2026-05-06 10:29 | 40.26697 | -3.02701 | 33009 ft | 402 kts | 254° |
| 2026-05-06 10:30 | 40.25145 | -3.09749 | 33008 ft | 403 kts | 254° |
| 2026-05-06 10:30 | 40.23573 | -3.16827 | 33009 ft | 404 kts | 254° |
| 2026-05-06 10:31 | 40.21999 | -3.23894 | 33015 ft | 404 kts | 254° |
| 2026-05-06 10:31 | 40.20432 | -3.30915 | 33002 ft | 404 kts | 254° |
| 2026-05-06 10:32 | 40.18857 | -3.37977 | 33013 ft | 403 kts | 254° |
| 2026-05-06 10:32 | 40.17275 | -3.45031 | 33012 ft | 404 kts | 254° |
| 2026-05-06 10:33 | 40.15689 | -3.52075 | 33019 ft | 406 kts | 254° |
| 2026-05-06 10:33 | 40.14096 | -3.59162 | 33020 ft | 406 kts | 254° |
| 2026-05-06 10:34 | 40.12500 | -3.66246 | 33021 ft | 406 kts | 253° |
| 2026-05-06 10:34 | 40.10897 | -3.73271 | 33019 ft | 406 kts | 253° |
| 2026-05-06 10:35 | 40.09281 | -3.80368 | 33002 ft | 406 kts | 253° |
| 2026-05-06 10:35 | 40.07668 | -3.87434 | 32999 ft | 409 kts | 253° |
| 2026-05-06 10:36 | 40.06031 | -3.94564 | 33000 ft | 410 kts | 253° |
| 2026-05-06 10:36 | 40.04389 | -4.01703 | 33000 ft | 410 kts | 253° |
| 2026-05-06 10:37 | 40.02748 | -4.08811 | 33000 ft | 410 kts | 253° |
| 2026-05-06 10:37 | 40.01098 | -4.15939 | 32998 ft | 410 kts | 253° |
| 2026-05-06 10:38 | 39.99450 | -4.23027 | 33000 ft | 410 kts | 253° |
| 2026-05-06 10:38 | 39.97789 | -4.30153 | 32997 ft | 410 kts | 253° |
| 2026-05-06 10:39 | 39.96159 | -4.37289 | 32996 ft | 410 kts | 255° |
| 2026-05-06 10:39 | 39.94711 | -4.44451 | 32997 ft | 410 kts | 256° |
| 2026-05-06 10:40 | 39.93309 | -4.51640 | 32991 ft | 408 kts | 255° |
| 2026-05-06 10:40 | 39.91873 | -4.58794 | 32986 ft | 408 kts | 255° |
| 2026-05-06 10:41 | 39.90401 | -4.65974 | 32991 ft | 410 kts | 255° |
| 2026-05-06 10:41 | 39.88932 | -4.73109 | 32991 ft | 410 kts | 255° |
| 2026-05-06 10:42 | 39.87452 | -4.80309 | 32991 ft | 410 kts | 255° |
| 2026-05-06 10:42 | 39.85967 | -4.87491 | 32991 ft | 410 kts | 255° |
| 2026-05-06 10:43 | 39.84478 | -4.94637 | 32988 ft | 410 kts | 255° |
| 2026-05-06 10:44 | 39.82229 | -5.05402 | 32986 ft | 413 kts | 255° |
| 2026-05-06 10:44 | 39.80717 | -5.12625 | 32986 ft | 413 kts | 255° |
| 2026-05-06 10:45 | 39.79199 | -5.19851 | 32986 ft | 413 kts | 255° |
| 2026-05-06 10:45 | 39.77692 | -5.27030 | 32986 ft | 413 kts | 255° |
| 2026-05-06 10:46 | 39.76165 | -5.34242 | 32983 ft | 414 kts | 255° |
| 2026-05-06 10:46 | 39.74633 | -5.41482 | 32984 ft | 416 kts | 255° |
| 2026-05-06 10:47 | 39.73096 | -5.48711 | 32987 ft | 416 kts | 255° |
| 2026-05-06 10:47 | 39.71561 | -5.55928 | 32980 ft | 416 kts | 254° |
| 2026-05-06 10:48 | 39.70008 | -5.63178 | 32981 ft | 416 kts | 254° |
| 2026-05-06 10:48 | 39.68442 | -5.70428 | 32984 ft | 416 kts | 254° |
| 2026-05-06 10:49 | 39.66878 | -5.77649 | 32984 ft | 419 kts | 254° |
| 2026-05-06 10:49 | 39.65299 | -5.84955 | 32982 ft | 418 kts | 254° |
| 2026-05-06 10:50 | 39.63740 | -5.92157 | 32982 ft | 416 kts | 254° |
| 2026-05-06 10:50 | 39.62173 | -5.99396 | 32982 ft | 416 kts | 254° |
| 2026-05-06 10:51 | 39.60594 | -6.06632 | 32985 ft | 416 kts | 254° |
| 2026-05-06 10:51 | 39.59001 | -6.13871 | 32985 ft | 418 kts | 254° |
| 2026-05-06 10:52 | 39.57410 | -6.21088 | 32984 ft | 419 kts | 254° |
| 2026-05-06 10:52 | 39.55803 | -6.28361 | 32988 ft | 419 kts | 253° |
| 2026-05-06 10:53 | 39.54193 | -6.35621 | 32985 ft | 419 kts | 253° |
| 2026-05-06 10:53 | 39.52553 | -6.42864 | 32991 ft | 419 kts | 250° |
| 2026-05-06 10:54 | 39.50089 | -6.49662 | 32990 ft | 421 kts | 244° |
| 2026-05-06 10:54 | 39.47477 | -6.56484 | 32990 ft | 423 kts | 244° |
| 2026-05-06 10:55 | 39.44856 | -6.63309 | 32993 ft | 423 kts | 244° |
| 2026-05-06 10:55 | 39.42238 | -6.70084 | 32993 ft | 423 kts | 244° |
| 2026-05-06 10:56 | 39.39611 | -6.76889 | 32991 ft | 422 kts | 244° |
| 2026-05-06 10:56 | 39.36987 | -6.83699 | 32988 ft | 421 kts | 244° |
| 2026-05-06 10:57 | 39.34376 | -6.90454 | 32993 ft | 423 kts | 244° |
| 2026-05-06 10:57 | 39.31738 | -6.97261 | 32991 ft | 423 kts | 244° |
| 2026-05-06 10:57 | 39.30422 | -7.00651 | 32361 ft | 421 kts | 244° |
| 2026-05-06 10:58 | 39.29102 | -7.04042 | 31438 ft | 424 kts | 244° |
| 2026-05-06 10:58 | 39.27767 | -7.07460 | 30532 ft | 427 kts | 244° |
| 2026-05-06 10:58 | 39.26425 | -7.10892 | 29524 ft | 430 kts | 244° |
| 2026-05-06 10:58 | 39.25074 | -7.14349 | 28435 ft | 433 kts | 244° |
| 2026-05-06 10:59 | 39.23729 | -7.17787 | 27343 ft | 436 kts | 244° |
| 2026-05-06 10:59 | 39.22354 | -7.21293 | 26241 ft | 440 kts | 244° |
| 2026-05-06 10:59 | 39.20957 | -7.24825 | 25450 ft | 444 kts | 243° |
| 2026-05-06 10:59 | 39.19524 | -7.28375 | 25153 ft | 448 kts | 243° |
| 2026-05-06 11:00 | 39.18066 | -7.31939 | 24946 ft | 450 kts | 243° |
| 2026-05-06 11:00 | 39.16592 | -7.35513 | 24708 ft | 451 kts | 243° |
| 2026-05-06 11:00 | 39.15614 | -7.37883 | 24541 ft | 452 kts | 243° |
| 2026-05-06 11:00 | 39.14130 | -7.41479 | 24306 ft | 453 kts | 243° |
| 2026-05-06 11:01 | 39.12651 | -7.45078 | 24073 ft | 454 kts | 243° |
| 2026-05-06 11:01 | 39.11178 | -7.48674 | 23831 ft | 454 kts | 243° |
| 2026-05-06 11:01 | 39.09718 | -7.52235 | 23583 ft | 440 kts | 243° |
| 2026-05-06 11:01 | 39.08313 | -7.55654 | 23316 ft | 424 kts | 243° |
| 2026-05-06 11:02 | 39.06971 | -7.58911 | 23045 ft | 409 kts | 243° |
| 2026-05-06 11:02 | 39.05655 | -7.62093 | 22772 ft | 395 kts | 243° |
| 2026-05-06 11:02 | 39.04385 | -7.65158 | 22502 ft | 380 kts | 243° |
| 2026-05-06 11:02 | 39.03181 | -7.68149 | 22233 ft | 371 kts | 244° |
| 2026-05-06 11:03 | 39.02058 | -7.71069 | 21971 ft | 368 kts | 245° |
| 2026-05-06 11:03 | 39.00949 | -7.74034 | 21707 ft | 366 kts | 245° |
| 2026-05-06 11:03 | 38.99850 | -7.76998 | 21445 ft | 365 kts | 245° |
| 2026-05-06 11:03 | 38.98752 | -7.79937 | 21187 ft | 364 kts | 245° |
| 2026-05-06 11:04 | 38.97646 | -7.82871 | 20926 ft | 362 kts | 245° |
| 2026-05-06 11:04 | 38.96557 | -7.85738 | 20677 ft | 361 kts | 245° |
| 2026-05-06 11:04 | 38.95448 | -7.88642 | 20425 ft | 360 kts | 245° |
| 2026-05-06 11:04 | 38.94340 | -7.91539 | 20174 ft | 359 kts | 245° |
| 2026-05-06 11:05 | 38.93246 | -7.94388 | 19920 ft | 351 kts | 245° |
| 2026-05-06 11:05 | 38.92188 | -7.97133 | 19688 ft | 340 kts | 245° |
| 2026-05-06 11:05 | 38.91148 | -7.99826 | 19442 ft | 330 kts | 243° |
| 2026-05-06 11:05 | 38.89965 | -8.02319 | 19196 ft | 322 kts | 236° |
| 2026-05-06 11:06 | 38.88593 | -8.04528 | 18962 ft | 318 kts | 232° |
| 2026-05-06 11:06 | 38.87175 | -8.06707 | 18724 ft | 317 kts | 232° |
| 2026-05-06 11:06 | 38.85769 | -8.08877 | 18488 ft | 315 kts | 232° |
| 2026-05-06 11:06 | 38.84368 | -8.11043 | 18235 ft | 314 kts | 232° |
| 2026-05-06 11:07 | 38.82968 | -8.13205 | 17966 ft | 314 kts | 232° |
| 2026-05-06 11:07 | 38.81575 | -8.15358 | 17688 ft | 313 kts | 232° |
| 2026-05-06 11:07 | 38.80195 | -8.17489 | 17434 ft | 312 kts | 232° |
| 2026-05-06 11:07 | 38.78803 | -8.19631 | 17167 ft | 311 kts | 232° |
| 2026-05-06 11:08 | 38.77419 | -8.21759 | 16905 ft | 310 kts | 232° |
| 2026-05-06 11:08 | 38.76032 | -8.23889 | 16643 ft | 309 kts | 232° |
| 2026-05-06 11:08 | 38.74654 | -8.26006 | 16386 ft | 309 kts | 232° |
| 2026-05-06 11:08 | 38.73301 | -8.28087 | 16176 ft | 308 kts | 232° |
| 2026-05-06 11:09 | 38.71929 | -8.30198 | 15892 ft | 307 kts | 232° |
| 2026-05-06 11:09 | 38.70561 | -8.32299 | 15565 ft | 305 kts | 231° |
| 2026-05-06 11:09 | 38.69194 | -8.34392 | 15242 ft | 304 kts | 231° |
| 2026-05-06 11:09 | 38.67838 | -8.36467 | 14914 ft | 303 kts | 231° |
| 2026-05-06 11:10 | 38.66508 | -8.38504 | 14597 ft | 302 kts | 232° |
| 2026-05-06 11:10 | 38.65166 | -8.40561 | 14274 ft | 300 kts | 232° |
| 2026-05-06 11:10 | 38.63830 | -8.42606 | 13951 ft | 299 kts | 231° |
| 2026-05-06 11:10 | 38.62496 | -8.44644 | 13604 ft | 299 kts | 231° |
| 2026-05-06 11:11 | 38.61200 | -8.46707 | 13304 ft | 295 kts | 238° |
| 2026-05-06 11:11 | 38.60425 | -8.49080 | 13045 ft | 291 kts | 260° |
| 2026-05-06 11:11 | 38.60297 | -8.51654 | 12786 ft | 291 kts | 269° |
| 2026-05-06 11:11 | 38.60276 | -8.54247 | 12524 ft | 292 kts | 269° |
| 2026-05-06 11:12 | 38.60251 | -8.56836 | 12261 ft | 289 kts | 269° |
| 2026-05-06 11:12 | 38.60221 | -8.59394 | 12007 ft | 291 kts | 269° |
| 2026-05-06 11:12 | 38.60187 | -8.61978 | 11757 ft | 291 kts | 269° |
| 2026-05-06 11:12 | 38.60154 | -8.64553 | 11503 ft | 289 kts | 269° |
| 2026-05-06 11:13 | 38.60121 | -8.67143 | 11251 ft | 289 kts | 269° |
| 2026-05-06 11:13 | 38.60085 | -8.69709 | 11002 ft | 288 kts | 269° |
| 2026-05-06 11:13 | 38.60046 | -8.72267 | 10757 ft | 287 kts | 269° |
| 2026-05-06 11:13 | 38.60009 | -8.74791 | 10516 ft | 288 kts | 269° |
| 2026-05-06 11:14 | 38.59974 | -8.77355 | 10274 ft | 287 kts | 269° |
| 2026-05-06 11:14 | 38.59937 | -8.79914 | 10025 ft | 287 kts | 269° |
| 2026-05-06 11:14 | 38.59901 | -8.82432 | 9881 ft | 287 kts | 269° |
| 2026-05-06 11:14 | 38.59865 | -8.84989 | 9499 ft | 287 kts | 269° |
| 2026-05-06 11:15 | 38.59827 | -8.87533 | 9105 ft | 284 kts | 269° |
| 2026-05-06 11:15 | 38.59793 | -8.90050 | 8712 ft | 281 kts | 270° |
| 2026-05-06 11:15 | 38.59758 | -8.92490 | 8321 ft | 270 kts | 270° |
| 2026-05-06 11:15 | 38.59720 | -8.94826 | 7943 ft | 255 kts | 271° |
| 2026-05-06 11:16 | 38.59683 | -8.97050 | 7566 ft | 249 kts | 270° |
| 2026-05-06 11:16 | 38.59646 | -8.99270 | 7194 ft | 249 kts | 272° |
| 2026-05-06 11:16 | 38.59611 | -9.01473 | 6867 ft | 246 kts | 271° |
| 2026-05-06 11:16 | 38.59738 | -9.03619 | 6548 ft | 241 kts | 287° |
| 2026-05-06 11:17 | 38.60228 | -9.05641 | 6091 ft | 241 kts | 289° |
| 2026-05-06 11:17 | 38.60729 | -9.07688 | 5600 ft | 241 kts | 290° |
| 2026-05-06 11:17 | 38.61230 | -9.09743 | 5115 ft | 241 kts | 290° |
| 2026-05-06 11:17 | 38.61731 | -9.11798 | 4640 ft | 242 kts | 290° |
| 2026-05-06 11:18 | 38.62234 | -9.13859 | 4144 ft | 242 kts | 290° |
| 2026-05-06 11:18 | 38.62858 | -9.15836 | 3652 ft | 236 kts | 304° |
| 2026-05-06 11:18 | 38.63868 | -9.17392 | 3161 ft | 225 kts | 322° |
| 2026-05-06 11:18 | 38.65159 | -9.18432 | 2693 ft | 213 kts | 339° |
| 2026-05-06 11:19 | 38.66526 | -9.18893 | 2432 ft | 191 kts | 353° |
| 2026-05-06 11:19 | 38.67802 | -9.18871 | 2236 ft | 176 kts | 5° |
| 2026-05-06 11:19 | 38.68949 | -9.18492 | 1994 ft | 165 kts | 19° |
| 2026-05-06 11:19 | 38.69975 | -9.17946 | 1783 ft | 157 kts | 18° |
| 2026-05-06 11:20 | 38.70977 | -9.17414 | 1574 ft | 155 kts | 18° |
| 2026-05-06 11:20 | 38.71945 | -9.16897 | 1369 ft | 146 kts | 19° |
| 2026-05-06 11:20 | 38.72862 | -9.16409 | 1175 ft | 142 kts | 20° |
| 2026-05-06 11:20 | 38.73771 | -9.15924 | 993 ft | 141 kts | 20° |
| 2026-05-06 11:21 | 38.74665 | -9.15447 | 788 ft | 140 kts | 18° |
| 2026-05-06 11:21 | 38.75561 | -9.14960 | 638 ft | 141 kts | 17° |
| 2026-05-06 11:21 | 38.76473 | -9.14481 | 428 ft | 142 kts | 18° |
| 2026-05-06 11:21 | 38.77367 | -9.14011 | 364 ft | 130 kts | 24° |
| 2026-05-06 11:22 | 38.78010 | -9.13663 | 365 ft | 64 kts | 22° |
| 2026-05-06 11:22 | 38.78270 | -9.13494 | 369 ft | 24 kts | 42° |
| 2026-05-06 11:22 | 38.78360 | -9.13357 | 363 ft | 13 kts | 58° |
| 2026-05-06 11:22 | 38.78332 | -9.13274 | 360 ft | 13 kts | 165° |
| 2026-05-06 11:23 | 38.78249 | -9.13302 | 360 ft | 12 kts | 203° |
| 2026-05-06 11:23 | 38.78167 | -9.13344 | 362 ft | 13 kts | 202° |
| 2026-05-06 11:23 | 38.78096 | -9.13382 | 361 ft | 10 kts | 203° |
| 2026-05-06 11:23 | 38.78031 | -9.13409 | 360 ft | 10 kts | 187° |
| 2026-05-06 11:24 | 38.77959 | -9.13400 | 353 ft | 12 kts | 168° |
| 2026-05-06 11:24 | 38.77871 | -9.13375 | 349 ft | 13 kts | 168° |
| 2026-05-06 11:24 | 38.77775 | -9.13347 | 350 ft | 15 kts | 157° |
| 2026-05-06 11:24 | 38.77748 | -9.13221 | 337 ft | 14 kts | 79° |
| 2026-05-06 11:25 | 38.77765 | -9.13113 | 337 ft | 11 kts | 78° |
| 2026-05-06 11:25 | 38.77800 | -9.13011 | 328 ft | 11 kts | 48° |
| 2026-05-06 11:25 | 38.77862 | -9.12952 | 330 ft | 11 kts | 34° |
| 2026-05-06 11:25 | 38.77923 | -9.12903 | 330 ft | 9 kts | 28° |
| 2026-05-06 11:26 | 38.77958 | -9.12917 | 329 ft | 5 kts | 313° |
| 2026-05-06 11:26 | 38.77975 | -9.12947 | 328 ft | 2 kts | 304° |
| 2026-05-06 11:26 | 38.77979 | -9.12954 | 329 ft | 0 kts | 304° |
| 2026-05-06 11:28 | 38.77979 | -9.12953 | 329 ft | 0 kts | 304° |